createdAt,value
2023-05-11T00:01:48.599Z,13.20
2023-05-11T00:04:17.167Z,15.85
2023-05-11T00:06:46.856Z,16.47
2023-05-11T00:09:15.146Z,13.77
2023-05-11T00:11:43.365Z,15.18
2023-05-11T00:14:11.623Z,15.63
2023-05-11T00:16:39.800Z,14.18
2023-05-11T00:19:08.054Z,16.50
2023-05-11T00:21:36.485Z,16.52
2023-05-11T00:24:06.639Z,16.63
2023-05-11T00:26:35.009Z,15.63
2023-05-11T00:29:03.496Z,16.73
2023-05-11T00:31:31.817Z,15.17
2023-05-11T00:34:00.162Z,17.13
2023-05-11T00:36:28.550Z,15.68
2023-05-11T00:38:56.817Z,17.60
2023-05-11T00:41:26.677Z,17.25
2023-05-11T00:43:54.974Z,18.53
2023-05-11T00:46:23.467Z,19.13
2023-05-11T00:48:51.815Z,19.98
2023-05-11T00:51:20.601Z,19.10
2023-05-11T00:53:49.197Z,20.35
2023-05-11T00:56:17.482Z,19.23
2023-05-11T00:58:47.109Z,20.90
2023-05-11T01:01:18.016Z,18.38
2023-05-11T01:03:47.340Z,18.60
2023-05-11T01:06:23.592Z,18.10
2023-05-11T01:08:58.085Z,16.80
2023-05-11T01:11:35.126Z,17.75
2023-05-11T01:14:11.592Z,13.82
2023-05-11T01:16:43.979Z,13.40
2023-05-11T01:19:20.642Z,13.18
2023-05-11T01:21:51.458Z,14.17
2023-05-11T01:24:39.149Z,17.27
2023-05-11T01:27:37.920Z,16.00
2023-05-11T01:30:28.208Z,15.07
2023-05-11T01:33:00.189Z,15.40
2023-05-11T01:35:30.541Z,14.57
2023-05-11T01:38:00.867Z,16.25
2023-05-11T01:40:33.543Z,15.02
2023-05-11T01:43:05.003Z,13.90
2023-05-11T01:45:40.583Z,13.20
2023-05-11T01:48:14.790Z,14.37
2023-05-11T01:50:43.754Z,14.10
2023-05-11T01:53:14.814Z,15.65
2023-05-11T01:55:44.135Z,13.82
2023-05-11T01:58:15.546Z,17.05
2023-05-11T02:00:47.111Z,12.97
2023-05-11T02:03:17.695Z,14.40
2023-05-11T02:05:49.464Z,14.80
2023-05-11T02:08:19.638Z,15.48
2023-05-11T02:10:49.490Z,16.58
2023-05-11T02:13:20.166Z,14.27
2023-05-11T02:15:54.166Z,15.48
2023-05-11T02:18:22.999Z,13.00
2023-05-11T02:21:00.601Z,14.38
2023-05-11T02:23:30.947Z,14.43
2023-05-11T02:25:59.626Z,14.60
2023-05-11T02:28:28.047Z,14.30
2023-05-11T02:31:03.405Z,15.40
2023-05-11T02:33:36.459Z,14.82
2023-05-11T02:36:08.204Z,15.20
2023-05-11T02:38:39.952Z,15.30
2023-05-11T02:41:15.086Z,16.52
2023-05-11T02:43:48.606Z,13.82
2023-05-11T02:46:23.158Z,13.82
2023-05-11T02:48:56.360Z,13.70
2023-05-11T02:51:31.836Z,16.03
2023-05-11T02:54:00.936Z,14.50
2023-05-11T02:56:32.725Z,15.15
2023-05-11T02:59:02.350Z,14.23
2023-05-11T03:01:32.686Z,14.32
2023-05-11T03:04:01.580Z,14.83
2023-05-11T03:06:34.438Z,14.38
2023-05-11T03:09:04.938Z,16.40
2023-05-11T03:11:35.201Z,16.23
2023-05-11T03:14:04.086Z,14.65
2023-05-11T03:16:35.805Z,16.63
2023-05-11T03:19:07.390Z,16.10
2023-05-11T03:21:38.291Z,14.60
2023-05-11T03:24:08.305Z,13.48
2023-05-11T03:26:37.570Z,14.35
2023-05-11T03:29:08.861Z,13.53
2023-05-11T03:31:38.734Z,17.40
2023-05-11T03:34:07.357Z,15.35
2023-05-11T03:36:41.009Z,16.92
2023-05-11T03:39:12.593Z,15.98
2023-05-11T03:41:41.703Z,16.03
2023-05-11T03:44:13.800Z,13.85
2023-05-11T03:46:47.911Z,14.43
2023-05-11T03:49:16.892Z,14.25
2023-05-11T03:51:46.044Z,15.82
2023-05-11T03:54:14.555Z,15.63
2023-05-11T03:56:42.855Z,17.38
2023-05-11T03:59:16.247Z,15.85
2023-05-11T04:01:46.737Z,15.43
2023-05-11T04:04:15.686Z,16.90
2023-05-11T04:06:44.028Z,15.03
2023-05-11T04:09:18.982Z,14.70
2023-05-11T04:11:47.264Z,14.68
2023-05-11T04:14:15.493Z,14.57
2023-05-11T04:16:45.297Z,14.18
2023-05-11T04:19:13.795Z,17.50
2023-05-11T04:21:42.061Z,16.33
2023-05-11T04:24:10.649Z,16.52
2023-05-11T04:26:38.922Z,16.27
2023-05-11T04:29:07.161Z,14.95
2023-05-11T04:31:36.981Z,17.17
2023-05-11T04:34:09.039Z,14.95
2023-05-11T04:36:38.377Z,16.75
2023-05-11T04:39:07.941Z,16.48
2023-05-11T04:41:38.581Z,16.02
2023-05-11T04:44:07.298Z,15.70
2023-05-11T04:46:36.356Z,15.20
2023-05-11T04:49:04.878Z,15.02
2023-05-11T04:51:35.483Z,14.50
2023-05-11T04:54:03.686Z,14.38
2023-05-11T04:56:32.125Z,14.00
2023-05-11T04:59:02.904Z,15.35
2023-05-11T05:01:32.460Z,14.13
2023-05-11T05:04:01.040Z,14.25
2023-05-11T05:06:29.691Z,15.70
2023-05-11T05:08:59.539Z,14.77
2023-05-11T05:11:27.889Z,14.45
2023-05-11T05:13:56.231Z,15.48
2023-05-11T05:16:24.517Z,13.57
2023-05-11T05:18:52.980Z,15.25
2023-05-11T05:21:21.545Z,14.73
2023-05-11T05:23:50.104Z,15.82
2023-05-11T05:26:20.029Z,14.93
2023-05-11T05:28:48.796Z,15.90
2023-05-11T05:31:18.031Z,17.02
2023-05-11T05:33:46.317Z,15.63
2023-05-11T05:36:14.935Z,17.77
2023-05-11T05:38:43.236Z,16.20
2023-05-11T05:41:11.716Z,16.17
2023-05-11T05:43:43.946Z,17.75
2023-05-11T05:46:13.117Z,16.00
2023-05-11T05:48:41.763Z,16.35
2023-05-11T05:51:11.069Z,16.92
2023-05-11T05:53:39.640Z,14.60
2023-05-11T05:56:08.366Z,17.08
2023-05-11T05:58:36.659Z,18.07
2023-05-11T06:01:06.589Z,17.67
2023-05-11T06:03:35.077Z,15.63
2023-05-11T06:06:05.260Z,16.42
2023-05-11T06:08:33.975Z,17.08
2023-05-11T06:11:02.270Z,17.30
2023-05-11T06:13:31.187Z,15.73
2023-05-11T06:16:02.103Z,16.38
2023-05-11T06:18:35.775Z,18.13
2023-05-11T06:21:07.120Z,15.73
2023-05-11T06:23:35.682Z,19.37
2023-05-11T06:26:04.250Z,17.63
2023-05-11T06:28:34.213Z,19.08
2023-05-11T06:31:06.395Z,18.60
2023-05-11T06:33:38.595Z,17.73
2023-05-11T06:36:12.447Z,16.30
2023-05-11T06:38:43.511Z,20.58
2023-05-11T06:41:12.518Z,17.75
2023-05-11T06:43:40.802Z,16.13
2023-05-11T06:46:20.720Z,17.58
2023-05-11T06:48:50.472Z,17.13
2023-05-11T06:51:18.816Z,17.13
2023-05-11T06:53:47.085Z,22.00
2023-05-11T06:56:15.378Z,18.63
2023-05-11T06:58:43.773Z,20.48
2023-05-11T07:01:13.180Z,21.80
2023-05-11T07:03:41.561Z,21.33
2023-05-11T07:06:11.288Z,20.95
2023-05-11T07:08:39.732Z,20.92
2023-05-11T07:11:07.987Z,19.73
2023-05-11T07:13:36.281Z,19.20
2023-05-11T07:16:04.685Z,17.95
2023-05-11T07:18:32.982Z,17.77
2023-05-11T07:21:01.347Z,22.63
2023-05-11T07:23:31.194Z,19.95
2023-05-11T07:25:59.645Z,20.67
2023-05-11T07:28:27.942Z,21.05
2023-05-11T07:30:56.208Z,20.98
2023-05-11T07:33:24.395Z,21.42
2023-05-11T07:35:52.779Z,19.48
2023-05-11T07:38:21.360Z,22.27
2023-05-11T07:40:51.165Z,19.33
2023-05-11T07:43:19.446Z,23.23
2023-05-11T07:45:47.738Z,19.95
2023-05-11T07:48:16.484Z,21.27
2023-05-11T07:50:44.940Z,18.03
2023-05-11T07:53:13.253Z,20.77
2023-05-11T07:55:41.484Z,21.45
2023-05-11T07:58:11.109Z,18.73
2023-05-11T08:00:39.362Z,19.88
2023-05-11T08:03:07.799Z,18.73
2023-05-11T08:05:37.968Z,19.80
2023-05-11T08:08:06.728Z,20.75
2023-05-11T08:10:36.279Z,17.88
2023-05-11T08:13:04.686Z,18.92
2023-05-11T08:15:34.761Z,18.43
2023-05-11T08:18:06.817Z,19.08
2023-05-11T08:20:35.105Z,16.77
2023-05-11T08:23:03.366Z,19.73
2023-05-11T08:25:32.011Z,18.92
2023-05-11T08:28:00.298Z,20.90
2023-05-11T08:30:28.674Z,19.15
2023-05-11T08:32:59.529Z,18.48
2023-05-11T08:35:28.030Z,15.52
2023-05-11T08:37:56.456Z,10.68
2023-05-11T08:40:27.915Z,10.43
2023-05-11T08:42:57.433Z,9.75
2023-05-11T08:45:27.497Z,10.60
2023-05-11T08:47:56.480Z,9.30
2023-05-11T08:50:26.157Z,8.77
2023-05-11T08:52:54.453Z,8.10
2023-05-11T08:55:23.491Z,7.55
2023-05-11T08:57:54.438Z,6.60
2023-05-11T09:00:24.305Z,7.63
2023-05-11T09:02:53.615Z,7.30
2023-05-11T09:05:24.133Z,6.43
2023-05-11T09:07:56.673Z,6.78
2023-05-11T09:10:25.833Z,7.43
2023-05-11T09:12:54.475Z,7.05
2023-05-11T09:15:23.151Z,6.43
2023-05-11T09:17:51.633Z,6.50
2023-05-11T09:20:29.174Z,6.22
2023-05-11T09:22:59.897Z,5.97
2023-05-11T09:25:32.398Z,6.07
2023-05-11T09:28:01.463Z,7.72
2023-05-11T09:30:29.760Z,6.37
2023-05-11T09:33:00.064Z,6.32
2023-05-11T09:35:31.042Z,6.38
2023-05-11T09:38:04.799Z,7.22
2023-05-11T09:40:35.103Z,7.15
2023-05-11T09:43:04.282Z,5.40
2023-05-11T09:45:36.934Z,5.55
2023-05-11T09:48:05.601Z,6.07
2023-05-11T09:50:34.748Z,6.25
2023-05-11T09:53:04.787Z,5.97
2023-05-11T09:55:33.124Z,7.53
2023-05-11T09:58:02.395Z,10.75
2023-05-11T10:00:30.829Z,6.00
2023-05-11T10:03:04.245Z,7.00
2023-05-11T10:05:34.117Z,6.85
2023-05-11T10:08:05.563Z,5.77
2023-05-11T10:10:35.619Z,6.47
2023-05-11T10:13:04.602Z,6.28
2023-05-11T10:15:39.272Z,4.75
2023-05-11T10:18:08.477Z,5.65
2023-05-11T10:20:37.186Z,5.43
2023-05-11T10:23:07.595Z,4.82
2023-05-11T10:25:36.280Z,5.47
2023-05-11T10:28:07.257Z,6.80
2023-05-11T10:30:37.269Z,5.22
2023-05-11T10:33:07.962Z,5.93
2023-05-11T10:35:39.665Z,5.95
2023-05-11T10:38:09.905Z,6.13
2023-05-11T10:40:41.516Z,5.82
2023-05-11T10:43:37.244Z,5.85
2023-05-11T10:46:17.872Z,6.37
2023-05-11T10:49:18.819Z,7.03
2023-05-11T10:52:14.775Z,5.53
2023-05-11T10:54:54.389Z,5.63
2023-05-11T10:57:39.054Z,5.60
2023-05-11T11:00:43.625Z,14.93
2023-05-11T11:03:13.152Z,7.57
2023-05-11T11:05:44.036Z,5.93
2023-05-11T11:08:12.563Z,6.03
2023-05-11T11:10:46.211Z,5.38
2023-05-11T11:13:15.857Z,5.20
2023-05-11T11:16:15.590Z,6.47
2023-05-11T11:18:45.032Z,6.72
2023-05-11T11:21:15.872Z,5.90
2023-05-11T11:23:46.396Z,6.25
2023-05-11T11:26:21.508Z,5.30
2023-05-11T11:29:12.393Z,5.97
2023-05-11T11:31:41.883Z,5.90
2023-05-11T11:34:37.716Z,4.97
2023-05-11T11:37:08.821Z,5.05
2023-05-11T11:40:13.040Z,5.43
2023-05-11T11:42:44.445Z,5.30
2023-05-11T11:45:33.219Z,5.20
2023-05-11T11:48:26.822Z,4.82
2023-05-11T11:51:04.144Z,5.18
2023-05-11T11:54:09.137Z,5.53
2023-05-11T11:56:43.802Z,5.18
2023-05-11T11:59:15.444Z,5.15
2023-05-11T12:01:45.862Z,6.05
2023-05-11T12:04:47.463Z,5.13
2023-05-11T12:07:17.164Z,5.27
2023-05-11T12:09:47.554Z,5.80
2023-05-11T12:12:19.960Z,5.40
2023-05-11T12:14:50.146Z,6.00
2023-05-11T12:17:26.080Z,6.72
2023-05-11T12:19:54.470Z,5.90
2023-05-11T12:22:26.529Z,6.47
2023-05-11T12:24:59.651Z,6.18
2023-05-11T12:27:35.266Z,6.45
2023-05-11T12:30:05.483Z,6.45
2023-05-11T12:32:33.972Z,6.63
2023-05-11T12:35:04.303Z,5.90
2023-05-11T12:37:33.995Z,6.07
2023-05-11T12:40:02.296Z,6.97
2023-05-11T12:42:30.944Z,6.40
2023-05-11T12:45:00.309Z,6.10
2023-05-11T12:47:30.640Z,6.30
2023-05-11T12:49:59.048Z,5.88
2023-05-11T12:52:27.389Z,7.50
2023-05-11T12:55:00.207Z,6.47
2023-05-11T12:57:30.281Z,6.50
2023-05-11T13:00:11.253Z,7.50
2023-05-11T13:02:50.320Z,6.28
2023-05-11T13:05:20.887Z,6.65
2023-05-11T13:07:49.727Z,6.43
2023-05-11T13:10:25.094Z,6.60
2023-05-11T13:12:54.005Z,6.07
2023-05-11T13:15:24.485Z,7.00
2023-05-11T13:18:00.508Z,9.10
2023-05-11T13:20:31.658Z,7.13
2023-05-11T13:23:08.070Z,6.67
2023-05-11T13:25:51.680Z,7.10
2023-05-11T13:28:22.051Z,7.40
2023-05-11T13:30:59.434Z,7.68
2023-05-11T13:33:29.563Z,7.63
2023-05-11T13:35:57.755Z,8.20
2023-05-11T13:38:26.046Z,8.65
2023-05-11T13:40:54.289Z,7.28
2023-05-11T13:43:31.773Z,7.43
2023-05-11T13:46:00.311Z,8.25
2023-05-11T13:48:30.510Z,7.47
2023-05-11T13:50:59.314Z,9.02
2023-05-11T13:53:27.751Z,7.72
2023-05-11T13:55:56.357Z,9.05
2023-05-11T13:58:24.621Z,7.90
2023-05-11T14:01:07.741Z,7.97
2023-05-11T14:03:37.988Z,7.90
2023-05-11T14:06:07.104Z,8.70
2023-05-11T14:08:35.449Z,7.45
2023-05-11T14:11:03.772Z,8.20
2023-05-11T14:13:32.074Z,9.47
2023-05-11T14:16:00.433Z,9.05
2023-05-11T14:18:29.117Z,8.40
2023-05-11T14:20:59.204Z,8.90
2023-05-11T14:23:27.924Z,8.18
2023-05-11T14:25:57.000Z,9.03
2023-05-11T14:28:25.283Z,8.10
2023-05-11T14:30:53.588Z,7.75
2023-05-11T14:33:22.070Z,7.60
2023-05-11T14:35:50.835Z,8.35
2023-05-11T14:38:20.575Z,7.47
2023-05-11T14:40:51.063Z,7.90
2023-05-11T14:43:20.557Z,9.18
2023-05-11T14:45:48.880Z,7.80
2023-05-11T14:48:17.430Z,7.75
2023-05-11T14:50:46.010Z,7.03
2023-05-11T14:53:14.305Z,7.20
2023-05-11T14:55:44.284Z,7.65
2023-05-11T14:58:12.679Z,7.95
2023-05-11T15:00:41.157Z,7.75
2023-05-11T15:03:10.838Z,8.50
2023-05-11T15:05:39.457Z,7.05
2023-05-11T15:08:18.388Z,7.65
2023-05-11T15:10:51.979Z,7.05
2023-05-11T15:13:22.202Z,8.20
2023-05-11T15:15:54.336Z,7.03
2023-05-11T15:18:22.874Z,6.95
2023-05-11T15:20:51.623Z,6.40
2023-05-11T15:23:20.004Z,7.22
2023-05-11T15:25:49.241Z,7.70
2023-05-11T15:28:18.979Z,7.50
2023-05-11T15:30:48.413Z,6.97
2023-05-11T15:33:16.826Z,7.22
2023-05-11T15:35:45.510Z,7.38
2023-05-11T15:38:19.665Z,9.77
2023-05-11T15:40:48.164Z,7.87
2023-05-11T15:43:16.892Z,6.97
2023-05-11T15:45:46.600Z,7.47
2023-05-11T15:48:15.159Z,7.97
2023-05-11T15:50:43.572Z,7.38
2023-05-11T15:53:11.821Z,6.97
2023-05-11T15:55:40.978Z,7.47
2023-05-11T15:58:10.493Z,8.27
2023-05-11T16:00:38.796Z,6.85
2023-05-11T16:03:08.535Z,8.43
2023-05-11T16:05:38.761Z,8.53
2023-05-11T16:08:07.487Z,7.38
2023-05-11T16:10:36.504Z,7.95
2023-05-11T16:13:05.318Z,7.38
2023-05-11T16:15:33.684Z,6.65
2023-05-11T16:18:04.819Z,7.33
2023-05-11T16:20:35.127Z,8.27
2023-05-11T16:23:04.269Z,6.78
2023-05-11T16:25:32.522Z,10.23
2023-05-11T16:28:00.766Z,12.75
2023-05-11T16:30:29.388Z,8.27
2023-05-11T16:32:57.921Z,8.10
2023-05-11T16:35:26.228Z,8.82
2023-05-11T16:37:56.686Z,6.75
2023-05-11T16:40:25.102Z,7.35
2023-05-11T16:42:53.413Z,6.30
2023-05-11T16:45:21.805Z,7.00
2023-05-11T16:47:53.715Z,6.65
2023-05-11T16:50:22.533Z,6.00
2023-05-11T16:52:51.252Z,6.93
2023-05-11T16:55:21.416Z,6.30
2023-05-11T16:57:49.642Z,8.05
2023-05-11T17:00:20.208Z,7.35
2023-05-11T17:02:49.239Z,6.47
2023-05-11T17:05:19.043Z,6.90
2023-05-11T17:07:48.764Z,6.97
2023-05-11T17:10:20.430Z,8.30
2023-05-11T17:12:52.995Z,8.05
2023-05-11T17:15:23.440Z,7.65
2023-05-11T17:17:54.424Z,8.32
2023-05-11T17:20:24.339Z,9.30
2023-05-11T17:22:53.634Z,8.50
2023-05-11T17:25:22.214Z,9.38
2023-05-11T17:27:51.959Z,10.45
2023-05-11T17:30:22.164Z,12.40
2023-05-11T17:32:57.517Z,13.73
2023-05-11T17:35:26.021Z,10.95
2023-05-11T17:37:54.339Z,12.55
2023-05-11T17:40:22.797Z,10.93
2023-05-11T17:42:52.573Z,11.90
2023-05-11T17:45:21.203Z,11.73
2023-05-11T17:47:50.734Z,12.82
2023-05-11T17:50:19.207Z,13.82
2023-05-11T17:52:50.697Z,13.38
2023-05-11T17:55:19.873Z,12.85
2023-05-11T17:57:51.811Z,13.40
2023-05-11T18:00:22.928Z,16.08
2023-05-11T18:02:51.640Z,13.82
2023-05-11T18:05:20.147Z,13.00
2023-05-11T18:07:48.640Z,13.02
2023-05-11T18:10:17.355Z,14.00
2023-05-11T18:12:50.053Z,14.02
2023-05-11T18:15:18.532Z,14.07
2023-05-11T18:17:49.105Z,14.85
2023-05-11T18:20:17.919Z,15.85
2023-05-11T18:22:47.023Z,13.17
2023-05-11T18:25:15.520Z,13.25
2023-05-11T18:27:44.012Z,14.75
2023-05-11T18:30:13.518Z,12.82
2023-05-11T18:32:51.508Z,14.45
2023-05-11T18:35:25.138Z,12.70
2023-05-11T18:37:53.981Z,12.35
2023-05-11T18:40:23.831Z,12.95
2023-05-11T18:42:56.195Z,12.20
2023-05-11T18:45:25.089Z,14.52
2023-05-11T18:47:53.701Z,14.97
2023-05-11T18:50:22.556Z,14.73
2023-05-11T18:52:52.503Z,16.77
2023-05-11T18:55:21.040Z,15.13
2023-05-11T18:57:50.483Z,15.68
2023-05-11T19:00:20.560Z,15.53
2023-05-11T19:02:49.828Z,15.90
2023-05-11T19:05:18.449Z,14.85
2023-05-11T19:07:46.859Z,14.80
2023-05-11T19:10:18.235Z,15.90
2023-05-11T19:12:46.840Z,16.83
2023-05-11T19:15:15.487Z,15.38
2023-05-11T19:17:43.931Z,19.08
2023-05-11T19:20:13.141Z,17.58
2023-05-11T19:22:41.723Z,17.05
2023-05-11T19:25:11.122Z,20.30
2023-05-11T19:27:41.628Z,15.73
2023-05-11T19:30:10.733Z,15.43
2023-05-11T19:32:39.440Z,15.25
2023-05-11T19:35:10.115Z,17.25
2023-05-11T19:37:38.501Z,15.57
2023-05-11T19:40:38.034Z,15.38
2023-05-11T19:42:58.919Z,15.65
2023-05-11T19:45:28.973Z,17.35
2023-05-11T19:47:57.469Z,17.58
2023-05-11T19:50:26.054Z,17.37
2023-05-11T19:52:54.776Z,18.67
2023-05-11T19:55:23.275Z,19.08
2023-05-11T19:57:52.346Z,19.17
2023-05-11T20:00:25.081Z,18.73
2023-05-11T20:02:53.975Z,19.17
2023-05-11T20:05:22.899Z,18.35
2023-05-11T20:07:51.258Z,20.83
2023-05-11T20:10:19.976Z,21.38
2023-05-11T20:12:48.613Z,22.10
2023-05-11T20:15:17.056Z,19.07
2023-05-11T20:17:46.955Z,19.95
2023-05-11T20:20:15.579Z,22.02
2023-05-11T20:22:44.421Z,18.15
2023-05-11T20:25:18.377Z,20.95
2023-05-11T20:27:47.841Z,21.30
2023-05-11T20:30:16.878Z,20.92
2023-05-11T20:35:19.444Z,24.17
2023-05-11T20:37:48.018Z,20.92
2023-05-11T20:40:17.319Z,22.73
2023-05-11T20:42:45.824Z,21.90
2023-05-11T20:45:14.469Z,22.13
2023-05-11T20:47:43.115Z,20.42
2023-05-11T20:50:15.073Z,21.95
2023-05-11T20:52:43.550Z,21.70
2023-05-11T20:55:12.134Z,22.63
2023-05-11T20:57:40.420Z,23.45
2023-05-11T21:00:11.209Z,21.85
2023-05-11T21:02:39.827Z,23.08
2023-05-11T21:05:08.689Z,22.33
2023-05-11T21:07:38.314Z,22.88
2023-05-11T21:10:07.851Z,25.35
2023-05-11T21:12:36.374Z,22.80
2023-05-11T21:15:04.881Z,23.77
2023-05-11T21:17:33.160Z,23.67
2023-05-11T21:20:01.534Z,24.77
2023-05-11T21:22:29.963Z,21.90
2023-05-11T21:24:59.758Z,24.65
2023-05-11T21:27:28.012Z,21.73
2023-05-11T21:29:56.937Z,23.10
2023-05-11T21:32:25.440Z,23.42
2023-05-11T21:34:53.857Z,25.33
2023-05-11T21:37:22.527Z,24.88
2023-05-11T21:39:51.392Z,29.20
2023-05-11T21:42:21.904Z,28.53
2023-05-11T21:44:50.195Z,22.55
2023-05-11T21:47:18.545Z,24.45
2023-05-11T21:49:47.137Z,21.08
2023-05-11T21:52:15.392Z,21.38
2023-05-11T21:54:43.693Z,18.90
2023-05-11T21:57:12.176Z,19.48
2023-05-11T21:59:42.080Z,24.70
2023-05-11T22:02:10.466Z,24.02
2023-05-11T22:04:39.049Z,24.23
2023-05-11T22:07:07.342Z,21.20
2023-05-11T22:09:36.242Z,25.05
2023-05-11T22:12:05.034Z,24.80
2023-05-11T22:14:43.225Z,25.92
2023-05-11T22:17:12.896Z,23.83
2023-05-11T22:19:42.799Z,24.53
2023-05-11T22:22:11.141Z,22.42
2023-05-11T22:24:39.369Z,23.83
2023-05-11T22:27:15.253Z,24.02
2023-05-11T22:29:46.484Z,23.15
2023-05-11T22:32:16.281Z,20.37
2023-05-11T22:34:44.698Z,20.58
2023-05-11T22:37:12.918Z,19.80
2023-05-11T22:39:41.199Z,18.77
2023-05-11T22:42:09.422Z,19.75
2023-05-11T22:44:37.719Z,17.67
2023-05-11T22:47:06.371Z,17.83
2023-05-11T22:49:36.063Z,16.95
2023-05-11T22:52:04.626Z,14.80
2023-05-11T22:54:33.179Z,14.57
2023-05-11T22:57:03.500Z,13.67
2023-05-11T22:59:34.479Z,12.85
2023-05-11T23:02:04.583Z,13.63
2023-05-11T23:04:33.307Z,13.35
2023-05-11T23:07:04.889Z,12.05
2023-05-11T23:09:33.141Z,13.43
2023-05-11T23:12:01.433Z,16.38
2023-05-11T23:14:29.688Z,20.27
2023-05-11T23:16:58.044Z,19.95
2023-05-11T23:19:26.492Z,21.05
2023-05-11T23:21:56.743Z,17.90
2023-05-11T23:24:26.601Z,17.17
2023-05-11T23:26:54.902Z,17.23
2023-05-11T23:29:23.305Z,17.20
2023-05-11T23:32:12.268Z,16.42
2023-05-11T23:34:40.621Z,14.00
2023-05-11T23:37:09.167Z,15.32
2023-05-11T23:39:39.573Z,14.35
2023-05-11T23:42:09.052Z,14.60
2023-05-11T23:44:37.307Z,12.95
2023-05-11T23:47:06.055Z,13.57
2023-05-11T23:49:34.450Z,13.73
2023-05-11T23:52:02.765Z,12.20
2023-05-11T23:54:31.173Z,11.30
2023-05-11T23:57:02.138Z,11.18
2023-05-11T23:59:30.472Z,11.87
